createdAt,value
2017-09-24T00:00:01.113Z,116.73
2017-09-24T00:00:34.560Z,110.33
2017-09-24T00:01:08.276Z,126.95
2017-09-24T00:01:41.992Z,118.05
2017-09-24T00:02:16.098Z,139.68
2017-09-24T00:02:49.829Z,108.20
2017-09-24T00:03:23.548Z,139.15
2017-09-24T00:03:57.272Z,101.85
2017-09-24T00:04:30.996Z,130.93
2017-09-24T00:05:04.721Z,136.12
2017-09-24T00:05:38.173Z,134.70
2017-09-24T00:06:12.388Z,159.30
2017-09-24T00:06:46.119Z,168.70
2017-09-24T00:07:20.227Z,161.48
2017-09-24T00:07:53.952Z,177.87
2017-09-24T00:08:27.673Z,163.02
2017-09-24T00:09:01.402Z,147.02
2017-09-24T00:09:34.856Z,163.50
2017-09-24T00:10:09.016Z,158.68
2017-09-24T00:10:42.739Z,184.52
2017-09-24T00:11:16.463Z,187.98
2017-09-24T00:11:50.172Z,162.48
2017-09-24T00:12:24.259Z,199.07
2017-09-24T00:12:57.732Z,173.43
2017-09-24T00:13:31.680Z,189.50
2017-09-24T00:14:05.399Z,184.65
2017-09-24T00:14:39.117Z,191.88
2017-09-24T00:15:12.832Z,189.70
2017-09-24T00:15:46.564Z,203.95
2017-09-24T00:16:20.289Z,211.00
2017-09-24T00:16:53.998Z,215.07
2017-09-24T00:17:28.072Z,201.68
2017-09-24T00:18:01.529Z,213.97
2017-09-24T00:18:34.900Z,219.95
2017-09-24T00:19:08.636Z,234.48
2017-09-24T00:19:42.364Z,206.65
2017-09-24T00:20:16.082Z,239.75
2017-09-24T00:20:49.788Z,233.25
2017-09-24T00:21:24.274Z,224.98
2017-09-24T00:21:58.000Z,228.37
2017-09-24T00:22:32.749Z,235.25
2017-09-24T00:23:06.286Z,251.55
2017-09-24T00:23:40.778Z,227.75
2017-09-24T00:24:14.310Z,242.40
2017-09-24T00:24:47.841Z,244.25
2017-09-24T00:25:21.372Z,214.05
2017-09-24T00:25:54.897Z,248.35
2017-09-24T00:26:28.451Z,263.27
2017-09-24T00:27:02.005Z,230.90
2017-09-24T00:27:35.816Z,234.68
2017-09-24T00:28:09.364Z,251.00
2017-09-24T00:28:42.905Z,243.68
2017-09-24T00:29:16.437Z,245.70
2017-09-24T00:29:49.982Z,234.52
2017-09-24T00:30:23.511Z,239.65
2017-09-24T00:30:57.039Z,233.02
2017-09-24T00:31:31.336Z,234.32
2017-09-24T00:32:04.882Z,257.20
2017-09-24T00:32:38.754Z,260.88
2017-09-24T00:33:12.288Z,243.60
2017-09-24T00:33:46.589Z,257.67
2017-09-24T00:34:20.886Z,244.27
2017-09-24T00:34:54.421Z,263.95
2017-09-24T00:35:27.943Z,240.85
2017-09-24T00:36:01.480Z,243.93
2017-09-24T00:36:35.254Z,240.10
2017-09-24T00:37:09.740Z,240.30
2017-09-24T00:37:43.776Z,248.82
2017-09-24T00:38:17.508Z,226.82
2017-09-24T00:38:51.236Z,217.20
2017-09-24T00:39:25.719Z,242.85
2017-09-24T00:39:59.458Z,214.75
2017-09-24T00:40:33.179Z,199.77
2017-09-24T00:41:06.544Z,206.00
2017-09-24T00:41:40.268Z,227.98
2017-09-24T00:42:14.002Z,222.98
2017-09-24T00:42:48.832Z,206.13
2017-09-24T00:43:22.209Z,177.25
2017-09-24T00:43:56.690Z,189.18
2017-09-24T00:44:30.388Z,183.05
2017-09-24T00:45:04.871Z,196.25
2017-09-24T00:45:38.600Z,176.18
2017-09-24T00:46:13.082Z,182.73
2017-09-24T00:46:46.453Z,195.90
2017-09-24T00:47:19.913Z,167.15
2017-09-24T00:47:53.984Z,159.55
2017-09-24T00:48:27.712Z,154.18
2017-09-24T00:49:01.416Z,162.45
2017-09-24T00:49:35.132Z,159.48
2017-09-24T00:50:08.836Z,145.20
2017-09-24T00:50:43.324Z,152.80
2017-09-24T00:51:17.176Z,119.55
2017-09-24T00:51:50.900Z,114.82
2017-09-24T00:52:24.618Z,123.43
2017-09-24T00:52:59.453Z,107.50
2017-09-24T00:53:33.176Z,110.35
2017-09-24T00:54:06.565Z,108.70
2017-09-24T00:54:40.293Z,118.95
2017-09-24T00:55:14.087Z,93.12
2017-09-24T00:55:47.120Z,98.20
2017-09-24T00:56:20.161Z,92.15
2017-09-24T00:56:53.537Z,97.95
2017-09-24T00:57:27.252Z,116.50
2017-09-24T00:58:00.614Z,104.87
2017-09-24T00:58:33.637Z,92.05
2017-09-24T00:59:06.671Z,88.43
2017-09-24T00:59:39.770Z,99.57
2017-09-24T01:00:12.802Z,108.35
2017-09-24T01:00:47.309Z,103.50
2017-09-24T01:01:21.805Z,99.37
2017-09-24T01:01:56.285Z,110.15
2017-09-24T01:02:30.015Z,97.25
2017-09-24T01:03:04.127Z,91.55
2017-09-24T01:03:37.853Z,91.07
2017-09-24T01:04:11.597Z,90.80
2017-09-24T01:04:46.064Z,82.28
2017-09-24T01:05:19.800Z,91.53
2017-09-24T01:05:53.516Z,90.05
2017-09-24T01:06:27.221Z,84.35
2017-09-24T01:07:00.605Z,98.15
2017-09-24T01:07:34.323Z,76.75
2017-09-24T01:08:08.053Z,85.60
2017-09-24T01:08:41.778Z,74.97
2017-09-24T01:09:15.500Z,84.45
2017-09-24T01:09:49.210Z,81.93
2017-09-24T01:10:23.683Z,61.20
2017-09-24T01:10:57.221Z,66.80
2017-09-24T01:11:30.949Z,76.03
2017-09-24T01:12:04.672Z,75.68
2017-09-24T01:12:38.392Z,75.28
2017-09-24T01:13:12.079Z,74.78
2017-09-24T01:13:45.450Z,71.40
2017-09-24T01:14:19.920Z,64.40
2017-09-24T01:14:53.305Z,67.75
2017-09-24T01:15:26.328Z,71.55
2017-09-24T01:15:59.697Z,68.65
2017-09-24T01:16:33.824Z,65.05
2017-09-24T01:17:07.539Z,69.40
2017-09-24T01:17:41.279Z,64.45
2017-09-24T01:18:15.389Z,70.53
2017-09-24T01:18:48.493Z,71.43
2017-09-24T01:19:22.194Z,67.03
2017-09-24T01:19:55.217Z,68.68
2017-09-24T01:20:28.994Z,62.40
2017-09-24T01:21:02.044Z,71.95
2017-09-24T01:21:35.074Z,67.85
2017-09-24T01:22:08.455Z,70.47
2017-09-24T01:22:41.229Z,67.93
2017-09-24T01:23:14.265Z,71.93
2017-09-24T01:23:47.984Z,71.80
2017-09-24T01:24:21.781Z,66.57
2017-09-24T01:24:54.805Z,76.47
2017-09-24T01:25:27.837Z,74.68
2017-09-24T01:26:00.891Z,72.03
2017-09-24T01:26:35.029Z,75.78
2017-09-24T01:27:08.060Z,69.62
2017-09-24T01:27:42.273Z,62.78
2017-09-24T01:28:15.512Z,78.93
2017-09-24T01:28:48.848Z,76.18
2017-09-24T01:29:21.878Z,74.32
2017-09-24T01:29:55.239Z,75.20
2017-09-24T01:30:28.272Z,71.82
2017-09-24T01:31:02.421Z,62.70
2017-09-24T01:31:35.467Z,62.03
2017-09-24T01:32:08.212Z,71.10
2017-09-24T01:32:40.973Z,66.90
2017-09-24T01:33:15.475Z,75.50
2017-09-24T01:33:49.588Z,70.65
2017-09-24T01:34:23.068Z,72.12
2017-09-24T01:34:56.873Z,74.30
2017-09-24T01:35:30.275Z,72.55
2017-09-24T01:36:03.305Z,76.25
2017-09-24T01:36:36.673Z,76.60
2017-09-24T01:37:10.549Z,76.40
2017-09-24T01:37:43.577Z,72.15
2017-09-24T01:38:16.604Z,75.68
2017-09-24T01:38:50.340Z,71.32
2017-09-24T01:39:24.128Z,77.85
2017-09-24T01:39:58.285Z,71.68
2017-09-24T01:40:31.298Z,76.80
2017-09-24T01:41:05.097Z,71.40
2017-09-24T01:41:39.232Z,84.10
2017-09-24T01:42:12.250Z,75.93
2017-09-24T01:42:45.269Z,79.03
2017-09-24T01:43:18.301Z,73.30
2017-09-24T01:43:51.700Z,78.53
2017-09-24T01:44:25.492Z,69.03
2017-09-24T01:44:59.189Z,74.30
2017-09-24T01:45:32.572Z,71.35
2017-09-24T01:46:06.379Z,63.40
2017-09-24T01:46:39.413Z,74.18
2017-09-24T01:47:13.140Z,73.55
2017-09-24T01:47:46.592Z,81.53
2017-09-24T01:48:20.405Z,67.85
2017-09-24T01:48:55.176Z,79.35
2017-09-24T01:49:28.192Z,67.72
2017-09-24T01:50:01.978Z,87.97
2017-09-24T01:50:35.772Z,72.72
2017-09-24T01:51:09.113Z,89.60
2017-09-24T01:51:42.140Z,69.82
2017-09-24T01:52:15.506Z,73.90
2017-09-24T01:52:49.640Z,70.03
2017-09-24T01:53:22.670Z,65.12
2017-09-24T01:53:55.817Z,77.87
2017-09-24T01:54:28.569Z,76.93
2017-09-24T01:55:01.602Z,76.32
2017-09-24T01:55:35.401Z,70.00
2017-09-24T01:56:09.188Z,67.30
2017-09-24T01:56:42.993Z,65.12
2017-09-24T01:57:15.748Z,72.83
2017-09-24T01:57:48.853Z,69.00
2017-09-24T01:58:21.948Z,68.63
2017-09-24T01:58:55.646Z,76.65
2017-09-24T01:59:28.676Z,66.97
2017-09-24T02:00:02.047Z,73.97
2017-09-24T02:00:36.541Z,74.93
2017-09-24T02:01:09.980Z,75.37
2017-09-24T02:01:43.416Z,73.30
2017-09-24T02:02:16.851Z,79.73
2017-09-24T02:02:50.293Z,82.17
2017-09-24T02:03:24.420Z,83.43
2017-09-24T02:03:57.752Z,72.05
2017-09-24T02:04:31.469Z,81.53
2017-09-24T02:05:04.986Z,76.87
2017-09-24T02:05:38.011Z,76.25
2017-09-24T02:06:11.740Z,80.00
2017-09-24T02:06:45.468Z,83.22
2017-09-24T02:07:19.738Z,90.97
2017-09-24T02:07:53.470Z,82.18
2017-09-24T02:08:27.183Z,84.10
2017-09-24T02:09:01.196Z,83.82
2017-09-24T02:09:34.917Z,90.30
2017-09-24T02:10:08.621Z,85.78
2017-09-24T02:10:42.333Z,90.00
2017-09-24T02:11:16.076Z,89.95
2017-09-24T02:11:49.812Z,91.12
2017-09-24T02:12:23.528Z,91.97
2017-09-24T02:12:58.017Z,96.18
2017-09-24T02:13:31.765Z,96.68
2017-09-24T02:14:05.525Z,96.53
2017-09-24T02:14:40.024Z,91.60
2017-09-24T02:15:14.526Z,87.10
2017-09-24T02:15:48.256Z,90.10
2017-09-24T02:16:21.972Z,85.93
2017-09-24T02:16:55.699Z,98.00
2017-09-24T02:17:29.408Z,85.72
2017-09-24T02:18:03.896Z,91.53
2017-09-24T02:18:37.616Z,99.05
2017-09-24T02:19:11.720Z,92.88
2017-09-24T02:19:45.445Z,101.78
2017-09-24T02:20:19.155Z,98.43
2017-09-24T02:20:53.360Z,104.53
2017-09-24T02:21:27.571Z,81.17
2017-09-24T02:22:01.780Z,87.93
2017-09-24T02:22:36.265Z,98.30
2017-09-24T02:23:09.977Z,98.72
2017-09-24T02:23:43.693Z,93.25
2017-09-24T02:24:17.796Z,107.70
2017-09-24T02:24:51.261Z,93.20
2017-09-24T02:25:24.708Z,96.67
2017-09-24T02:25:58.917Z,102.10
2017-09-24T02:26:33.147Z,104.03
2017-09-24T02:27:07.622Z,91.30
2017-09-24T02:27:41.354Z,95.95
2017-09-24T02:28:14.784Z,92.90
2017-09-24T02:28:48.490Z,104.30
2017-09-24T02:29:22.525Z,99.78
2017-09-24T02:29:57.010Z,88.82
2017-09-24T02:30:30.731Z,90.45
2017-09-24T02:31:05.221Z,90.47
2017-09-24T02:31:38.485Z,107.03
2017-09-24T02:32:12.239Z,97.50
2017-09-24T02:32:45.694Z,94.63
2017-09-24T02:33:19.416Z,90.87
2017-09-24T02:33:53.137Z,86.30
2017-09-24T02:34:27.192Z,88.72
2017-09-24T02:35:00.933Z,84.15
2017-09-24T02:35:34.658Z,87.28
2017-09-24T02:36:09.147Z,85.45
2017-09-24T02:36:42.594Z,88.60
2017-09-24T02:37:16.027Z,83.87
2017-09-24T02:37:49.473Z,92.33
2017-09-24T02:38:23.189Z,85.18
2017-09-24T02:38:56.641Z,84.53
2017-09-24T02:39:30.737Z,91.60
2017-09-24T02:40:04.452Z,94.22
2017-09-24T02:40:38.925Z,81.45
2017-09-24T02:41:12.646Z,86.20
2017-09-24T02:41:46.355Z,87.68
2017-09-24T02:42:20.076Z,90.82
2017-09-24T02:42:53.798Z,77.25
2017-09-24T02:43:27.516Z,94.93
2017-09-24T02:44:01.039Z,76.78
2017-09-24T02:44:34.612Z,84.00
2017-09-24T02:45:08.893Z,85.22
2017-09-24T02:45:42.155Z,86.10
2017-09-24T02:46:15.899Z,78.35
2017-09-24T02:46:49.342Z,81.57
2017-09-24T02:47:23.561Z,78.43
2017-09-24T02:47:58.049Z,91.63
2017-09-24T02:48:31.756Z,80.38
2017-09-24T02:49:05.477Z,90.62
2017-09-24T02:49:39.493Z,74.30
2017-09-24T02:50:13.219Z,83.05
2017-09-24T02:50:46.943Z,84.70
2017-09-24T02:51:21.412Z,80.47
2017-09-24T02:51:55.128Z,75.03
2017-09-24T02:52:28.648Z,80.05
2017-09-24T02:53:02.111Z,84.87
2017-09-24T02:53:35.903Z,80.45
2017-09-24T02:54:10.393Z,70.35
2017-09-24T02:54:44.411Z,89.60
2017-09-24T02:55:18.882Z,74.25
2017-09-24T02:55:53.084Z,87.53
2017-09-24T02:56:26.840Z,87.12
2017-09-24T02:57:00.604Z,85.53
2017-09-24T02:57:35.099Z,85.05
2017-09-24T02:58:09.580Z,89.15
2017-09-24T02:58:43.796Z,91.53
2017-09-24T02:59:18.008Z,84.10
2017-09-24T02:59:52.054Z,82.22
2017-09-24T03:00:25.519Z,88.50
2017-09-24T03:00:59.237Z,85.35
2017-09-24T03:01:32.948Z,79.87
2017-09-24T03:02:06.670Z,95.22
2017-09-24T03:02:41.154Z,92.43
2017-09-24T03:03:15.358Z,85.97
2017-09-24T03:03:49.078Z,92.07
2017-09-24T03:04:22.563Z,85.37
2017-09-24T03:04:56.378Z,78.30
2017-09-24T03:05:29.823Z,75.93
2017-09-24T03:06:03.531Z,86.60
2017-09-24T03:06:36.973Z,83.37
2017-09-24T03:07:11.191Z,94.37
2017-09-24T03:07:44.908Z,94.65
2017-09-24T03:08:18.372Z,101.03
2017-09-24T03:08:52.589Z,86.60
2017-09-24T03:09:26.288Z,94.60
2017-09-24T03:10:01.169Z,98.55
2017-09-24T03:10:35.381Z,84.47
2017-09-24T03:11:09.585Z,86.67
2017-09-24T03:11:43.785Z,86.60
2017-09-24T03:12:17.998Z,95.07
2017-09-24T03:12:52.482Z,87.00
2017-09-24T03:13:26.724Z,82.97
2017-09-24T03:14:01.197Z,90.55
2017-09-24T03:14:35.430Z,99.17
2017-09-24T03:15:10.257Z,86.60
2017-09-24T03:15:44.733Z,93.32
2017-09-24T03:16:18.194Z,94.23
2017-09-24T03:16:51.641Z,105.60
2017-09-24T03:17:25.370Z,87.43
2017-09-24T03:17:58.819Z,99.33
2017-09-24T03:18:32.275Z,91.43
2017-09-24T03:19:05.996Z,92.30
2017-09-24T03:19:39.704Z,88.35
2017-09-24T03:20:13.469Z,95.67
2017-09-24T03:20:46.945Z,97.47
2017-09-24T03:21:21.430Z,102.18
2017-09-24T03:21:54.878Z,100.07
2017-09-24T03:22:28.604Z,92.75
2017-09-24T03:23:02.326Z,97.32
2017-09-24T03:23:36.815Z,99.00
2017-09-24T03:24:10.533Z,97.32
2017-09-24T03:24:43.976Z,104.10
2017-09-24T03:25:17.803Z,95.15
2017-09-24T03:25:52.280Z,99.45
2017-09-24T03:26:26.003Z,95.90
2017-09-24T03:26:59.736Z,103.85
2017-09-24T03:27:33.464Z,100.57
2017-09-24T03:28:07.217Z,103.62
2017-09-24T03:28:40.676Z,103.13
2017-09-24T03:29:14.113Z,94.00
2017-09-24T03:29:47.568Z,93.60
2017-09-24T03:30:21.429Z,92.93
2017-09-24T03:30:55.144Z,95.72
2017-09-24T03:31:28.577Z,104.10
2017-09-24T03:32:02.034Z,98.90
2017-09-24T03:32:36.254Z,96.53
2017-09-24T03:33:09.970Z,103.18
2017-09-24T03:33:44.474Z,106.90
2017-09-24T03:34:17.921Z,110.80
2017-09-24T03:34:52.154Z,106.23
2017-09-24T03:35:25.960Z,97.73
2017-09-24T03:36:00.451Z,106.97
2017-09-24T03:36:33.909Z,107.50
2017-09-24T03:37:07.740Z,110.88
2017-09-24T03:37:41.197Z,110.77
2017-09-24T03:38:14.916Z,122.22
2017-09-24T03:38:49.400Z,109.53
2017-09-24T03:39:23.178Z,121.82
2017-09-24T03:39:56.893Z,124.47
2017-09-24T03:40:30.921Z,110.93
2017-09-24T03:41:04.660Z,106.53
2017-09-24T03:41:38.384Z,113.47
2017-09-24T03:42:11.834Z,109.90
2017-09-24T03:42:46.044Z,111.17
2017-09-24T03:43:19.779Z,107.82
2017-09-24T03:43:53.507Z,114.72
2017-09-24T03:44:27.230Z,122.55
2017-09-24T03:45:00.964Z,93.00
2017-09-24T03:45:35.052Z,119.32
2017-09-24T03:46:08.768Z,104.40
2017-09-24T03:46:42.489Z,125.15
2017-09-24T03:47:16.229Z,124.15
2017-09-24T03:47:49.668Z,119.50
2017-09-24T03:48:23.877Z,111.03
2017-09-24T03:48:57.329Z,134.37
2017-09-24T03:49:30.771Z,122.57
2017-09-24T03:50:05.267Z,123.68
2017-09-24T03:50:40.099Z,114.97
2017-09-24T03:51:13.588Z,115.90
2017-09-24T03:51:47.041Z,126.87
2017-09-24T03:52:20.480Z,106.13
2017-09-24T03:52:54.196Z,111.85
2017-09-24T03:53:27.910Z,105.57
2017-09-24T03:54:01.380Z,109.13
2017-09-24T03:54:35.093Z,113.20
2017-09-24T03:55:08.537Z,111.30
2017-09-24T03:55:42.589Z,109.85
2017-09-24T03:56:16.037Z,109.87
2017-09-24T03:56:49.760Z,110.55
2017-09-24T03:57:24.250Z,108.63
2017-09-24T03:57:57.696Z,108.70
2017-09-24T03:58:31.561Z,107.07
2017-09-24T03:59:05.135Z,103.97
2017-09-24T03:59:38.574Z,119.73
2017-09-24T04:00:12.789Z,109.37
2017-09-24T04:00:46.833Z,108.85
2017-09-24T04:01:20.554Z,101.55
2017-09-24T04:01:54.284Z,107.55
2017-09-24T04:02:27.999Z,95.32
2017-09-24T04:03:02.476Z,91.85
2017-09-24T04:03:36.200Z,106.40
2017-09-24T04:04:09.653Z,93.50
2017-09-24T04:04:43.377Z,115.57
2017-09-24T04:05:16.815Z,105.67
2017-09-24T04:05:50.860Z,94.60
2017-09-24T04:06:24.603Z,100.62
2017-09-24T04:06:58.868Z,106.60
2017-09-24T04:07:32.304Z,93.10
2017-09-24T04:08:05.774Z,105.13
2017-09-24T04:08:39.496Z,100.25
2017-09-24T04:09:13.988Z,97.85
2017-09-24T04:09:47.700Z,94.05
2017-09-24T04:10:20.961Z,104.97
2017-09-24T04:10:54.889Z,104.25
2017-09-24T04:11:28.600Z,89.85
2017-09-24T04:12:02.319Z,93.47
2017-09-24T04:12:36.038Z,99.80
2017-09-24T04:13:10.517Z,99.70
2017-09-24T04:13:44.237Z,100.50
2017-09-24T04:14:17.680Z,113.43
2017-09-24T04:14:51.396Z,101.65
2017-09-24T04:15:25.293Z,101.63
2017-09-24T04:15:59.317Z,97.25
2017-09-24T04:16:32.752Z,88.40
2017-09-24T04:17:07.006Z,94.10
2017-09-24T04:17:40.464Z,100.67
2017-09-24T04:18:14.214Z,100.32
2017-09-24T04:18:47.652Z,89.43
2017-09-24T04:19:22.140Z,85.10
2017-09-24T04:19:55.892Z,89.68
2017-09-24T04:20:29.604Z,94.07
2017-09-24T04:21:03.456Z,88.33
2017-09-24T04:21:37.248Z,82.80
2017-09-24T04:22:10.981Z,83.80
2017-09-24T04:22:44.713Z,94.45
2017-09-24T04:23:19.195Z,84.87
2017-09-24T04:23:52.916Z,84.65
2017-09-24T04:24:26.367Z,97.30
2017-09-24T04:25:00.581Z,83.80
2017-09-24T04:25:34.049Z,90.10
2017-09-24T04:26:08.032Z,84.97
2017-09-24T04:26:41.744Z,87.05
2017-09-24T04:27:15.961Z,78.30
2017-09-24T04:27:49.681Z,80.03
2017-09-24T04:28:23.409Z,79.28
2017-09-24T04:28:57.123Z,86.12
2017-09-24T04:29:30.889Z,84.25
2017-09-24T04:30:04.616Z,86.87
2017-09-24T04:30:38.049Z,84.23
2017-09-24T04:31:11.820Z,94.40
2017-09-24T04:31:45.536Z,89.43
2017-09-24T04:32:18.978Z,85.87
2017-09-24T04:32:53.492Z,93.10
2017-09-24T04:33:26.938Z,89.83
2017-09-24T04:34:01.144Z,87.57
2017-09-24T04:34:34.849Z,83.25
2017-09-24T04:35:08.581Z,87.35
2017-09-24T04:35:42.294Z,80.18
2017-09-24T04:36:16.360Z,91.15
2017-09-24T04:36:50.083Z,81.90
2017-09-24T04:37:23.576Z,84.87
2017-09-24T04:37:57.292Z,86.82
2017-09-24T04:38:31.018Z,87.32
2017-09-24T04:39:04.033Z,80.95
2017-09-24T04:39:37.751Z,68.95
2017-09-24T04:40:11.473Z,82.55
2017-09-24T04:40:45.189Z,79.43
2017-09-24T04:41:19.230Z,83.55
2017-09-24T04:41:52.688Z,77.47
2017-09-24T04:42:26.896Z,88.67
2017-09-24T04:43:00.753Z,92.20
2017-09-24T04:43:34.199Z,73.10
2017-09-24T04:44:07.629Z,77.57
2017-09-24T04:44:41.137Z,71.10
2017-09-24T04:45:14.846Z,78.50
2017-09-24T04:45:49.073Z,81.33
2017-09-24T04:46:23.932Z,77.53
2017-09-24T04:46:57.645Z,77.65
2017-09-24T04:47:31.860Z,77.27
2017-09-24T04:48:05.303Z,78.90
2017-09-24T04:48:38.748Z,78.80
2017-09-24T04:49:13.220Z,81.15
2017-09-24T04:49:46.934Z,80.97
2017-09-24T04:50:20.636Z,78.25
2017-09-24T04:50:55.112Z,81.90
2017-09-24T04:51:28.844Z,73.57
2017-09-24T04:52:03.346Z,73.30
2017-09-24T04:52:37.829Z,79.72
2017-09-24T04:53:11.272Z,87.23
2017-09-24T04:53:44.993Z,84.70
2017-09-24T04:54:19.197Z,75.93
2017-09-24T04:54:53.235Z,81.30
2017-09-24T04:55:27.729Z,86.40
2017-09-24T04:56:02.209Z,89.60
2017-09-24T04:56:36.772Z,88.83
2017-09-24T04:57:10.033Z,75.67
2017-09-24T04:57:43.475Z,86.57
2017-09-24T04:58:16.903Z,79.33
2017-09-24T04:58:51.395Z,83.55
2017-09-24T04:59:25.105Z,84.85
2017-09-24T04:59:58.547Z,78.60
2017-09-24T05:00:32.408Z,78.93
2017-09-24T05:01:05.846Z,81.17
2017-09-24T05:01:40.375Z,79.50
2017-09-24T05:02:13.813Z,84.17
2017-09-24T05:02:48.037Z,87.57
2017-09-24T05:03:22.243Z,86.23
2017-09-24T05:03:55.950Z,80.12
2017-09-24T05:04:29.654Z,82.40
2017-09-24T05:05:04.130Z,73.40
2017-09-24T05:05:37.839Z,79.12
2017-09-24T05:06:12.320Z,85.43
2017-09-24T05:06:46.874Z,83.27
2017-09-24T05:07:20.576Z,70.28
2017-09-24T05:07:54.027Z,68.30
2017-09-24T05:08:27.469Z,70.50
2017-09-24T05:09:00.927Z,78.17
2017-09-24T05:09:34.412Z,83.93
2017-09-24T05:10:07.851Z,69.77
2017-09-24T05:10:41.292Z,73.07
2017-09-24T05:11:14.738Z,76.77
2017-09-24T05:11:48.541Z,70.73
2017-09-24T05:12:22.003Z,69.30
2017-09-24T05:12:55.709Z,74.35
2017-09-24T05:13:28.809Z,77.87
2017-09-24T05:14:02.256Z,73.00
2017-09-24T05:14:35.700Z,63.20
2017-09-24T05:15:09.147Z,64.90
2017-09-24T05:15:42.013Z,69.43
2017-09-24T05:16:16.493Z,56.33
2017-09-24T05:16:50.972Z,61.60
2017-09-24T05:17:25.177Z,69.03
2017-09-24T05:17:58.619Z,74.83
2017-09-24T05:18:33.100Z,69.20
2017-09-24T05:19:06.547Z,70.13
2017-09-24T05:19:39.986Z,75.47
2017-09-24T05:20:13.478Z,69.00
2017-09-24T05:20:46.914Z,71.93
2017-09-24T05:21:21.140Z,73.83
2017-09-24T05:21:54.972Z,69.30
2017-09-24T05:22:28.410Z,76.40
2017-09-24T05:23:02.621Z,70.17
2017-09-24T05:23:36.349Z,75.65
2017-09-24T05:24:10.064Z,84.82
2017-09-24T05:24:43.504Z,61.20
2017-09-24T05:25:16.952Z,77.43
2017-09-24T05:25:51.157Z,85.13
2017-09-24T05:26:25.371Z,73.60
2017-09-24T05:26:59.147Z,71.50
2017-09-24T05:27:32.873Z,73.22
2017-09-24T05:28:06.313Z,64.67
2017-09-24T05:28:39.749Z,77.77
2017-09-24T05:29:13.197Z,71.27
2017-09-24T05:29:46.920Z,66.47
2017-09-24T05:30:21.406Z,65.80
2017-09-24T05:30:55.916Z,64.87
2017-09-24T05:31:29.631Z,69.03
2017-09-24T05:32:03.357Z,73.13
2017-09-24T05:32:37.081Z,69.65
2017-09-24T05:33:10.799Z,71.15
2017-09-24T05:33:45.307Z,67.05
2017-09-24T05:34:19.785Z,76.53
2017-09-24T05:34:53.816Z,69.40
2017-09-24T05:35:28.314Z,65.15
2017-09-24T05:36:01.756Z,64.20
2017-09-24T05:36:35.213Z,73.90
2017-09-24T05:37:09.394Z,62.72
2017-09-24T05:37:43.865Z,78.65
2017-09-24T05:38:17.579Z,65.35
2017-09-24T05:38:51.025Z,70.40
2017-09-24T05:39:24.740Z,71.35
2017-09-24T05:39:58.946Z,66.13
2017-09-24T05:40:33.170Z,71.37
2017-09-24T05:41:06.619Z,76.30
2017-09-24T05:41:40.832Z,65.87
2017-09-24T05:42:15.327Z,72.93
2017-09-24T05:42:49.041Z,67.35
2017-09-24T05:43:22.487Z,65.93
2017-09-24T05:43:55.935Z,68.23
2017-09-24T05:44:29.373Z,67.33
2017-09-24T05:45:03.580Z,62.57
2017-09-24T05:45:37.780Z,69.27
2017-09-24T05:46:11.993Z,74.13
2017-09-24T05:46:45.502Z,67.47
2017-09-24T05:47:19.303Z,59.70
2017-09-24T05:47:52.752Z,66.80
2017-09-24T05:48:26.988Z,64.77
2017-09-24T05:49:00.434Z,61.67
2017-09-24T05:49:34.632Z,69.77
2017-09-24T05:50:08.871Z,61.13
2017-09-24T05:50:42.340Z,62.90
2017-09-24T05:51:15.902Z,58.08
2017-09-24T05:51:49.621Z,61.88
2017-09-24T05:52:23.636Z,49.85
2017-09-24T05:52:56.724Z,64.83
2017-09-24T05:53:30.434Z,58.67
2017-09-24T05:54:04.148Z,63.38
2017-09-24T05:54:38.356Z,64.93
2017-09-24T05:55:12.561Z,67.43
2017-09-24T05:55:46.776Z,63.90
2017-09-24T05:56:20.217Z,64.63
2017-09-24T05:56:55.755Z,66.37
2017-09-24T05:57:29.823Z,60.43
2017-09-24T05:58:03.268Z,53.10
2017-09-24T05:58:37.478Z,56.37
2017-09-24T05:59:10.935Z,62.10
2017-09-24T05:59:44.380Z,59.53
2017-09-24T06:00:20.760Z,60.07
2017-09-24T06:00:54.195Z,53.63
2017-09-24T06:01:27.637Z,52.47
2017-09-24T06:02:01.072Z,54.10
2017-09-24T06:02:34.890Z,55.73
2017-09-24T06:03:08.337Z,46.07
2017-09-24T06:03:41.789Z,57.43
2017-09-24T06:04:16.008Z,62.33
2017-09-24T06:04:50.218Z,65.33
2017-09-24T06:05:23.666Z,55.33
2017-09-24T06:05:57.112Z,53.40
2017-09-24T06:06:30.552Z,56.97
2017-09-24T06:07:04.768Z,60.53
2017-09-24T06:07:38.596Z,62.83
2017-09-24T06:08:12.050Z,49.23
2017-09-24T06:08:45.860Z,49.35
2017-09-24T06:09:20.358Z,69.90
2017-09-24T06:09:54.073Z,48.42
2017-09-24T06:10:27.518Z,51.13
2017-09-24T06:11:01.230Z,51.55
2017-09-24T06:11:35.747Z,57.88
2017-09-24T06:12:09.184Z,57.70
2017-09-24T06:12:43.324Z,57.43
2017-09-24T06:13:16.581Z,53.00
2017-09-24T06:13:50.604Z,52.97
2017-09-24T06:14:24.064Z,46.70
2017-09-24T06:14:57.509Z,47.50
2017-09-24T06:15:30.950Z,47.67
2017-09-24T06:16:04.413Z,54.83
2017-09-24T06:16:38.623Z,49.37
2017-09-24T06:17:12.077Z,51.07
2017-09-24T06:17:46.592Z,45.93
2017-09-24T06:18:20.310Z,45.30
2017-09-24T06:18:54.530Z,44.23
2017-09-24T06:19:27.969Z,53.53
2017-09-24T06:20:01.411Z,44.97
2017-09-24T06:20:34.862Z,43.70
2017-09-24T06:21:09.088Z,47.63
2017-09-24T06:21:42.532Z,47.77
2017-09-24T06:22:16.781Z,43.60
2017-09-24T06:22:50.521Z,44.97
2017-09-24T06:23:24.749Z,41.93
2017-09-24T06:23:58.189Z,52.83
2017-09-24T06:24:31.622Z,47.47
2017-09-24T06:25:05.063Z,48.47
2017-09-24T06:25:38.604Z,44.53
2017-09-24T06:26:12.083Z,46.93
2017-09-24T06:26:46.656Z,45.13
2017-09-24T06:27:20.093Z,53.87
2017-09-24T06:27:54.132Z,46.13
2017-09-24T06:28:27.564Z,47.23
2017-09-24T06:29:01.010Z,43.90
2017-09-24T06:29:35.218Z,41.00
2017-09-24T06:30:09.428Z,44.93
2017-09-24T06:30:43.633Z,46.37
2017-09-24T06:31:17.839Z,50.57
2017-09-24T06:31:51.281Z,47.00
2017-09-24T06:32:24.732Z,52.43
2017-09-24T06:32:58.543Z,42.60
2017-09-24T06:33:31.976Z,40.43
2017-09-24T06:34:06.210Z,51.27
2017-09-24T06:34:39.656Z,40.27
2017-09-24T06:35:13.864Z,41.50
2017-09-24T06:35:48.107Z,47.50
2017-09-24T06:36:21.554Z,40.60
2017-09-24T06:36:55.787Z,46.43
2017-09-24T06:37:29.228Z,42.60
2017-09-24T06:38:03.588Z,47.93
2017-09-24T06:38:37.297Z,45.40
2017-09-24T06:39:11.013Z,40.88
2017-09-24T06:39:45.237Z,37.40
2017-09-24T06:40:19.113Z,38.33
2017-09-24T06:40:53.316Z,37.40
2017-09-24T06:41:27.520Z,41.70
2017-09-24T06:42:01.730Z,44.03
2017-09-24T06:42:35.941Z,39.67
2017-09-24T06:43:09.769Z,39.80
2017-09-24T06:43:43.200Z,48.63
2017-09-24T06:44:17.698Z,36.10
2017-09-24T06:44:51.140Z,40.40
2017-09-24T06:45:24.614Z,41.40
2017-09-24T06:45:58.054Z,36.43
2017-09-24T06:46:32.309Z,42.80
2017-09-24T06:47:05.783Z,37.13
2017-09-24T06:47:39.227Z,39.57
2017-09-24T06:48:13.888Z,38.67
2017-09-24T06:48:47.378Z,38.20
2017-09-24T06:49:20.823Z,43.03
2017-09-24T06:49:55.042Z,42.20
2017-09-24T06:50:28.494Z,44.33
2017-09-24T06:51:02.716Z,38.93
2017-09-24T06:51:36.589Z,41.00
2017-09-24T06:52:10.307Z,42.42
2017-09-24T06:52:43.767Z,38.90
2017-09-24T06:53:18.495Z,37.13
2017-09-24T06:53:52.737Z,44.77
2017-09-24T06:54:26.249Z,37.50
2017-09-24T06:55:00.212Z,36.57
2017-09-24T06:55:33.664Z,44.00
2017-09-24T06:56:07.869Z,38.83
2017-09-24T06:56:42.101Z,36.53
2017-09-24T06:57:15.592Z,38.33
2017-09-24T06:57:49.024Z,39.00
2017-09-24T06:58:23.653Z,37.23
2017-09-24T06:58:57.088Z,39.10
2017-09-24T06:59:30.811Z,40.07
2017-09-24T07:00:04.678Z,43.07
2017-09-24T07:00:37.833Z,34.60
2017-09-24T07:01:11.276Z,39.07
2017-09-24T07:01:45.893Z,39.27
2017-09-24T07:02:20.097Z,37.70
2017-09-24T07:02:54.125Z,37.67
2017-09-24T07:03:27.924Z,39.00
2017-09-24T07:04:01.362Z,35.60
2017-09-24T07:04:35.573Z,40.63
2017-09-24T07:05:09.824Z,37.13
2017-09-24T07:05:43.119Z,44.43
2017-09-24T07:06:16.606Z,33.13
2017-09-24T07:06:50.115Z,47.50
2017-09-24T07:07:24.327Z,40.00
2017-09-24T07:07:58.547Z,36.93
2017-09-24T07:08:32.165Z,39.73
2017-09-24T07:09:04.945Z,43.80
2017-09-24T07:09:38.407Z,37.50
2017-09-24T07:10:11.851Z,38.97
2017-09-24T07:10:46.069Z,34.13
2017-09-24T07:11:19.507Z,40.90